createdAt,value
2022-08-22T00:01:32.067Z,10.80
2022-08-22T00:02:48.064Z,8.13
2022-08-22T00:03:06.994Z,10.23
2022-08-22T00:04:34.524Z,8.90
2022-08-22T00:07:10.518Z,8.10
2022-08-22T00:10:08.847Z,10.98
2022-08-22T00:12:49.458Z,8.23
2022-08-22T00:15:42.979Z,9.23
2022-08-22T00:18:29.501Z,10.02
2022-08-22T00:21:26.376Z,10.43
2022-08-22T00:24:27.639Z,11.13
2022-08-22T00:27:18.450Z,10.32
2022-08-22T00:30:03.569Z,8.77
2022-08-22T00:32:40.146Z,8.35
2022-08-22T00:35:32.389Z,10.70
2022-08-22T00:38:13.154Z,7.63
2022-08-22T00:41:03.866Z,13.68
2022-08-22T00:43:33.853Z,11.50
2022-08-22T00:46:23.596Z,9.10
2022-08-22T00:49:18.387Z,10.65
2022-08-22T00:51:54.334Z,12.73
2022-08-22T00:54:58.018Z,9.23
2022-08-22T00:57:43.168Z,9.20
2022-08-22T01:00:16.701Z,7.32
2022-08-22T01:06:00.141Z,9.25
2022-08-22T01:08:50.993Z,11.20
2022-08-22T01:11:48.500Z,11.02
2022-08-22T01:14:35.087Z,13.63
2022-08-22T01:17:26.910Z,9.80
2022-08-22T01:19:59.639Z,12.38
2022-08-22T01:23:07.135Z,10.13
2022-08-22T01:26:19.488Z,16.27
2022-08-22T01:29:09.495Z,8.23
2022-08-22T01:31:59.557Z,9.13
2022-08-22T01:34:39.985Z,9.82
2022-08-22T01:37:28.775Z,13.90
2022-08-22T01:40:00.022Z,12.63
2022-08-22T01:43:05.209Z,12.20
2022-08-22T01:48:58.435Z,12.10
2022-08-22T01:52:19.643Z,8.73
2022-08-22T01:55:06.724Z,10.80
2022-08-22T01:57:50.637Z,18.25
2022-08-22T02:00:34.823Z,12.38
2022-08-22T02:03:32.654Z,16.88
2022-08-22T02:06:05.510Z,12.10
2022-08-22T02:08:47.991Z,15.10
2022-08-22T02:11:52.158Z,12.00
2022-08-22T02:17:32.757Z,10.30
2022-08-22T02:20:21.369Z,14.05
2022-08-22T02:22:57.427Z,11.32
2022-08-22T02:25:33.797Z,12.25
2022-08-22T02:28:38.575Z,14.88
2022-08-22T02:31:46.851Z,9.25
2022-08-22T02:34:35.821Z,12.10
2022-08-22T02:37:34.841Z,13.50
2022-08-22T02:43:11.352Z,14.68
2022-08-22T02:45:53.193Z,11.90
2022-08-22T02:48:39.435Z,14.60
2022-08-22T02:51:57.869Z,10.85
2022-08-22T02:54:39.014Z,15.65
2022-08-22T02:57:14.842Z,11.20
2022-08-22T03:00:32.262Z,16.45
2022-08-22T03:03:14.462Z,15.30
2022-08-22T03:05:51.497Z,9.85
2022-08-22T03:08:34.581Z,13.50
2022-08-22T03:11:29.488Z,11.00
2022-08-22T03:17:10.714Z,10.90
2022-08-22T03:20:06.856Z,15.38
2022-08-22T03:22:56.260Z,11.68
2022-08-22T03:25:33.924Z,11.30
2022-08-22T03:28:17.525Z,14.25
2022-08-22T03:31:26.135Z,10.15
2022-08-22T03:34:26.504Z,13.23
2022-08-22T03:37:06.279Z,11.25
2022-08-22T03:40:05.825Z,15.45
2022-08-22T03:43:03.588Z,15.63
2022-08-22T03:46:21.057Z,11.60
2022-08-22T03:49:32.956Z,12.65
2022-08-22T03:53:02.602Z,11.18
2022-08-22T03:56:20.860Z,17.27
2022-08-22T03:59:16.657Z,13.68
2022-08-22T04:01:49.543Z,12.13
2022-08-22T04:07:33.260Z,12.68
2022-08-22T04:10:40.923Z,17.90
2022-08-22T04:13:38.996Z,12.48
2022-08-22T04:16:29.679Z,18.02
2022-08-22T04:19:12.354Z,8.65
2022-08-22T04:22:19.439Z,10.35
2022-08-22T04:25:10.220Z,11.38
2022-08-22T04:27:49.936Z,14.45
2022-08-22T04:30:16.712Z,14.88
2022-08-22T04:32:57.116Z,13.77
2022-08-22T04:35:32.737Z,12.13
2022-08-22T04:38:11.461Z,12.13
2022-08-22T04:41:04.354Z,11.25
2022-08-22T04:43:37.059Z,14.45
2022-08-22T04:46:52.027Z,16.75
2022-08-22T04:49:29.143Z,13.15
2022-08-22T04:52:29.394Z,11.52
2022-08-22T04:55:36.500Z,13.77
2022-08-22T04:58:10.987Z,12.25
2022-08-22T05:00:44.964Z,15.52
2022-08-22T05:03:16.945Z,11.88
2022-08-22T05:05:46.857Z,11.82
2022-08-22T05:08:20.127Z,12.73
2022-08-22T05:10:50.696Z,11.35
2022-08-22T05:13:24.079Z,21.83
2022-08-22T05:18:31.401Z,14.82
2022-08-22T05:21:02.262Z,10.38
2022-08-22T05:23:38.087Z,16.90
2022-08-22T05:26:07.424Z,14.98
2022-08-22T05:28:41.726Z,15.77
2022-08-22T05:31:18.775Z,14.82
2022-08-22T05:33:56.625Z,14.88
2022-08-22T05:36:31.280Z,13.37
2022-08-22T05:39:04.982Z,19.90
2022-08-22T05:41:36.771Z,16.80
2022-08-22T05:44:04.727Z,13.38
2022-08-22T05:46:42.149Z,8.95
2022-08-22T05:49:19.163Z,15.75
2022-08-22T05:51:55.598Z,19.42
2022-08-22T05:54:33.579Z,13.77
2022-08-22T05:57:15.577Z,15.57
2022-08-22T05:59:43.890Z,13.35
2022-08-22T06:02:19.458Z,16.55
2022-08-22T06:04:51.380Z,14.63
2022-08-22T06:07:27.786Z,14.82
2022-08-22T06:10:24.725Z,18.45
2022-08-22T06:13:27.234Z,15.05
2022-08-22T06:16:20.468Z,14.65
2022-08-22T06:18:50.656Z,16.20
2022-08-22T06:21:31.501Z,16.48
2022-08-22T06:24:02.866Z,14.52
2022-08-22T06:26:36.407Z,15.27
2022-08-22T06:29:07.227Z,17.45
2022-08-22T06:31:44.935Z,13.82
2022-08-22T06:34:15.742Z,16.42
2022-08-22T06:36:48.647Z,15.30
2022-08-22T06:39:21.274Z,17.45
2022-08-22T06:41:53.820Z,13.07
2022-08-22T06:44:25.588Z,15.30
2022-08-22T06:46:58.605Z,16.92
2022-08-22T06:49:27.467Z,13.02
2022-08-22T06:52:00.185Z,17.15
2022-08-22T06:54:34.354Z,16.85
2022-08-22T06:57:03.274Z,16.98
2022-08-22T06:59:35.377Z,13.23
2022-08-22T07:02:17.021Z,14.80
2022-08-22T07:04:44.014Z,14.73
2022-08-22T07:07:10.766Z,18.00
2022-08-22T07:09:41.435Z,19.38
2022-08-22T07:12:19.445Z,14.80
2022-08-22T07:14:51.948Z,16.90
2022-08-22T07:17:23.756Z,12.70
2022-08-22T07:20:35.578Z,15.05
2022-08-22T07:23:12.418Z,15.85
2022-08-22T07:25:54.008Z,15.32
2022-08-22T07:28:51.581Z,13.23
2022-08-22T07:32:03.518Z,13.55
2022-08-22T07:38:56.275Z,13.52
2022-08-22T07:41:30.118Z,17.42
2022-08-22T07:44:16.497Z,13.88
2022-08-22T07:47:06.450Z,11.75
2022-08-22T07:49:41.126Z,11.98
2022-08-22T07:52:17.785Z,12.88
2022-08-22T07:55:11.129Z,11.48
2022-08-22T07:57:43.529Z,14.65
2022-08-22T08:00:20.107Z,19.45
2022-08-22T08:02:51.414Z,20.05
2022-08-22T08:05:20.241Z,15.57
2022-08-22T08:07:48.355Z,15.73
2022-08-22T08:10:36.730Z,16.10
2022-08-22T08:13:08.999Z,14.05
2022-08-22T08:15:38.450Z,12.00
2022-08-22T08:18:12.086Z,19.25
2022-08-22T08:20:39.630Z,17.38
2022-08-22T08:23:10.547Z,15.45
2022-08-22T08:26:01.539Z,16.35
2022-08-22T08:28:34.891Z,13.32
2022-08-22T08:33:50.317Z,12.38
2022-08-22T08:36:41.943Z,15.38
2022-08-22T08:39:35.500Z,13.63
2022-08-22T08:45:15.472Z,15.13
2022-08-22T08:48:08.365Z,11.20
2022-08-22T08:50:53.462Z,15.87
2022-08-22T08:53:27.096Z,13.57
2022-08-22T08:55:58.619Z,12.73
2022-08-22T08:58:41.405Z,18.50
2022-08-22T09:16:04.938Z,12.07
2022-08-22T09:19:09.869Z,16.52
2022-08-22T09:22:14.343Z,15.95
2022-08-22T09:25:18.883Z,11.85
2022-08-22T09:28:06.582Z,15.18
2022-08-22T09:31:00.248Z,14.15
2022-08-22T09:36:06.760Z,10.95
2022-08-22T09:38:51.481Z,16.15
2022-08-22T09:41:37.892Z,11.07
2022-08-22T09:48:43.356Z,11.48
2022-08-22T09:51:31.966Z,9.80
2022-08-22T09:54:15.936Z,9.25
2022-08-22T09:56:58.360Z,10.18
2022-08-22T09:59:51.754Z,12.98
2022-08-22T10:02:37.727Z,10.20
2022-08-22T10:05:40.961Z,10.00
2022-08-22T10:08:30.930Z,11.00
2022-08-22T10:11:21.081Z,10.70
2022-08-22T10:13:57.253Z,9.40
2022-08-22T10:16:47.253Z,6.47
2022-08-22T10:19:27.608Z,6.85
2022-08-22T10:22:32.140Z,8.75
2022-08-22T10:25:16.343Z,9.93
2022-08-22T10:28:14.816Z,11.68
2022-08-22T10:31:09.793Z,8.82
2022-08-22T10:33:46.065Z,12.70
2022-08-22T10:36:41.303Z,12.00
2022-08-22T10:42:28.629Z,10.55
2022-08-22T10:45:36.345Z,12.35
2022-08-22T10:48:07.249Z,10.13
2022-08-22T10:50:45.038Z,12.30
2022-08-22T10:53:51.977Z,12.13
2022-08-22T10:56:49.542Z,11.75
2022-08-22T10:59:29.616Z,10.43
2022-08-22T11:02:05.344Z,11.13
2022-08-22T11:05:07.202Z,8.25
2022-08-22T11:07:50.076Z,9.07
2022-08-22T11:10:45.205Z,6.72
2022-08-22T11:13:31.726Z,12.23
2022-08-22T11:16:08.977Z,7.35
2022-08-22T11:19:15.181Z,11.05
2022-08-22T11:22:00.189Z,9.98
2022-08-22T11:24:34.640Z,8.77
2022-08-22T11:27:13.002Z,9.18
2022-08-22T11:29:57.613Z,6.65
2022-08-22T11:32:59.477Z,8.38
2022-08-22T11:35:37.141Z,10.95
2022-08-22T11:38:36.113Z,8.15
2022-08-22T11:41:15.433Z,7.93
2022-08-22T11:44:15.505Z,11.68
2022-08-22T11:46:49.787Z,9.35
2022-08-22T11:49:31.787Z,9.90
2022-08-22T11:52:06.119Z,12.15
2022-08-22T11:55:16.778Z,10.25
2022-08-22T11:57:48.491Z,10.43
2022-08-22T12:00:50.382Z,7.88
2022-08-22T12:03:39.388Z,7.15
2022-08-22T12:06:20.949Z,9.65
2022-08-22T12:09:15.801Z,9.98
2022-08-22T12:12:15.858Z,9.63
2022-08-22T12:15:12.391Z,6.80
2022-08-22T12:18:01.518Z,10.88
2022-08-22T12:20:46.447Z,9.15
2022-08-22T12:23:50.272Z,11.23
2022-08-22T12:26:56.798Z,10.43
2022-08-22T12:29:45.458Z,13.65
2022-08-22T12:32:27.456Z,5.88
2022-08-22T12:35:32.371Z,5.68
2022-08-22T12:38:28.906Z,8.15
2022-08-22T12:41:36.357Z,9.48
2022-08-22T12:44:18.440Z,7.72
2022-08-22T12:47:17.432Z,8.93
2022-08-22T12:50:06.282Z,9.02
2022-08-22T12:53:02.374Z,7.93
2022-08-22T12:55:37.998Z,9.05
2022-08-22T12:58:41.524Z,7.93
2022-08-22T13:01:10.926Z,7.22
2022-08-22T13:03:46.254Z,8.20
2022-08-22T13:06:34.970Z,11.05
2022-08-22T13:09:15.523Z,10.77
2022-08-22T13:11:45.131Z,10.60
2022-08-22T13:14:19.551Z,6.63
2022-08-22T13:16:53.567Z,9.02
2022-08-22T13:19:24.374Z,10.25
2022-08-22T13:22:02.954Z,8.18
2022-08-22T13:24:52.452Z,7.18
2022-08-22T13:27:34.650Z,7.32
2022-08-22T13:30:12.551Z,9.43
2022-08-22T13:32:45.763Z,5.97
2022-08-22T13:35:51.938Z,6.15
2022-08-22T13:38:49.124Z,6.95
2022-08-22T13:41:25.908Z,7.20
2022-08-22T13:44:08.854Z,7.97
2022-08-22T13:46:52.804Z,8.18
2022-08-22T13:49:36.725Z,8.00
2022-08-22T13:52:28.775Z,7.75
2022-08-22T13:55:01.290Z,10.02
2022-08-22T13:57:34.886Z,7.97
2022-08-22T14:00:29.015Z,8.38
2022-08-22T14:05:34.553Z,8.45
2022-08-22T14:08:20.949Z,7.00
2022-08-22T14:10:55.179Z,7.00
2022-08-22T14:13:32.938Z,9.00
2022-08-22T14:16:36.786Z,8.30
2022-08-22T14:19:52.722Z,7.13
2022-08-22T14:22:31.931Z,5.35
2022-08-22T14:25:07.255Z,9.15
2022-08-22T14:27:34.477Z,10.13
2022-08-22T14:30:13.338Z,9.98
2022-08-22T14:33:05.091Z,9.65
2022-08-22T14:35:37.885Z,8.40
2022-08-22T14:38:29.819Z,7.80
2022-08-22T14:41:05.383Z,7.70
2022-08-22T14:43:32.363Z,6.18
2022-08-22T14:46:45.411Z,7.40
2022-08-22T14:49:29.484Z,8.18
2022-08-22T14:52:04.348Z,8.27
2022-08-22T14:54:37.159Z,8.52
2022-08-22T14:57:10.128Z,7.47
2022-08-22T14:59:43.346Z,7.60
2022-08-22T15:02:27.992Z,6.25
2022-08-22T15:04:56.322Z,8.73
2022-08-22T15:07:27.358Z,10.73
2022-08-22T15:10:03.110Z,6.07
2022-08-22T15:12:37.718Z,12.10
2022-08-22T15:15:27.584Z,8.23
2022-08-22T15:17:55.166Z,7.75
2022-08-22T15:20:33.038Z,10.43
2022-08-22T15:23:14.735Z,8.82
2022-08-22T15:25:47.062Z,9.88
2022-08-22T15:28:20.152Z,10.15
2022-08-22T15:30:56.581Z,8.23
2022-08-22T15:33:40.085Z,9.02
2022-08-22T15:36:20.860Z,5.78
2022-08-22T15:39:25.983Z,6.68
2022-08-22T15:41:54.914Z,8.73
2022-08-22T15:44:32.624Z,11.80
2022-08-22T15:47:26.643Z,9.98
2022-08-22T15:49:59.766Z,9.13
2022-08-22T15:52:32.179Z,13.50
2022-08-22T15:55:16.095Z,8.20
2022-08-22T15:57:52.241Z,10.02
2022-08-22T16:00:36.589Z,9.23
2022-08-22T16:03:27.849Z,9.98
2022-08-22T16:06:01.835Z,7.30
2022-08-22T16:08:49.202Z,7.43
2022-08-22T16:11:33.727Z,12.18
2022-08-22T16:14:24.164Z,8.70
2022-08-22T16:16:56.573Z,11.05
2022-08-22T16:19:26.111Z,7.25
2022-08-22T16:21:55.959Z,7.15
2022-08-22T16:24:22.722Z,10.40
2022-08-22T16:26:52.162Z,6.88
2022-08-22T16:29:41.416Z,6.85
2022-08-22T16:32:11.784Z,4.97
2022-08-22T16:34:44.032Z,6.50
2022-08-22T16:37:18.339Z,7.38
2022-08-22T16:39:58.002Z,7.35
2022-08-22T16:42:38.028Z,6.38
2022-08-22T16:45:13.186Z,6.38
2022-08-22T16:50:21.222Z,8.80
2022-08-22T16:52:51.171Z,7.32
2022-08-22T16:55:30.102Z,6.28
2022-08-22T16:58:07.213Z,9.90
2022-08-22T17:00:58.005Z,6.80
2022-08-22T17:03:51.319Z,6.90
2022-08-22T17:06:49.087Z,8.43
2022-08-22T17:09:46.792Z,11.52
2022-08-22T17:12:40.994Z,7.60
2022-08-22T17:15:34.155Z,5.80
2022-08-22T17:18:24.332Z,6.50
2022-08-22T17:21:10.423Z,5.80
2022-08-22T17:23:49.353Z,8.00
2022-08-22T17:26:34.410Z,6.30
2022-08-22T17:29:19.412Z,8.02
2022-08-22T17:32:21.822Z,8.48
2022-08-22T17:34:57.322Z,9.15
2022-08-22T17:37:35.931Z,7.65
2022-08-22T17:40:38.230Z,4.72
2022-08-22T17:43:48.351Z,7.30
2022-08-22T17:46:52.431Z,6.97
2022-08-22T17:49:28.995Z,6.13
2022-08-22T17:52:07.140Z,8.02
2022-08-22T17:54:45.887Z,6.32
2022-08-22T17:57:34.474Z,6.35
2022-08-22T18:00:08.539Z,5.68
2022-08-22T18:02:50.797Z,3.97
2022-08-22T18:05:20.675Z,9.93
2022-08-22T18:07:56.609Z,6.70
2022-08-22T18:10:42.577Z,6.80
2022-08-22T18:13:21.813Z,11.88
2022-08-22T18:15:57.629Z,8.30
2022-08-22T18:18:40.767Z,8.88
2022-08-22T18:21:25.019Z,9.23
2022-08-22T18:23:59.325Z,6.80
2022-08-22T18:26:42.503Z,4.65
2022-08-22T18:29:16.263Z,13.63
2022-08-22T18:32:11.369Z,5.25
2022-08-22T18:46:38.525Z,6.97
2022-08-22T18:49:16.017Z,6.82
2022-08-22T18:51:43.486Z,6.68
2022-08-22T18:54:15.268Z,7.07
2022-08-22T18:57:30.814Z,4.30
2022-08-22T18:59:57.542Z,4.53
2022-08-22T19:03:10.629Z,8.20
2022-08-22T19:05:59.250Z,5.13
2022-08-22T19:08:53.005Z,6.93
2022-08-22T19:11:42.883Z,9.05
2022-08-22T19:14:18.708Z,7.55
2022-08-22T19:17:23.041Z,9.90
2022-08-22T19:20:18.225Z,5.78
2022-08-22T19:22:45.347Z,10.23
2022-08-22T19:25:20.137Z,12.05
2022-08-22T19:28:11.667Z,12.25
2022-08-22T19:30:50.654Z,6.60
2022-08-22T19:33:19.274Z,6.40
2022-08-22T19:36:04.334Z,8.23
2022-08-22T19:38:50.579Z,6.88
2022-08-22T19:41:59.605Z,6.35
2022-08-22T19:44:26.255Z,8.45
2022-08-22T19:47:08.520Z,9.50
2022-08-22T19:49:38.704Z,7.60
2022-08-22T19:52:30.361Z,6.72
2022-08-22T19:55:22.422Z,11.80
2022-08-22T19:57:52.316Z,6.20
2022-08-22T20:00:27.571Z,7.82
2022-08-22T20:03:03.306Z,7.45
2022-08-22T20:05:58.648Z,10.10
2022-08-22T20:08:58.854Z,9.05
2022-08-22T20:11:28.902Z,7.93
2022-08-22T20:14:30.569Z,6.43
2022-08-22T20:17:03.107Z,10.45
2022-08-22T20:20:17.731Z,8.20
2022-08-22T20:23:25.108Z,9.85
2022-08-22T20:25:55.927Z,11.23
2022-08-22T20:28:40.333Z,10.55
2022-08-22T20:31:12.394Z,9.48
2022-08-22T20:33:46.175Z,9.55
2022-08-22T20:36:28.489Z,12.95
2022-08-22T20:39:05.919Z,10.00
2022-08-22T20:41:35.794Z,9.98
2022-08-22T20:44:12.565Z,8.45
2022-08-22T20:46:53.290Z,9.27
2022-08-22T20:49:28.647Z,10.13
2022-08-22T20:52:07.412Z,6.65
2022-08-22T20:54:38.041Z,6.40
2022-08-22T20:57:17.864Z,10.20
2022-08-22T20:59:57.993Z,9.35
2022-08-22T21:02:34.516Z,7.53
2022-08-22T21:05:06.864Z,8.63
2022-08-22T21:07:37.895Z,8.75
2022-08-22T21:10:25.607Z,11.00
2022-08-22T21:13:11.930Z,9.35
2022-08-22T21:15:45.055Z,8.95
2022-08-22T21:20:41.505Z,9.57
2022-08-22T21:23:13.983Z,8.60
2022-08-22T21:25:50.749Z,10.73
2022-08-22T21:29:02.202Z,9.60
2022-08-22T21:31:33.813Z,5.57
2022-08-22T21:34:02.790Z,9.68
2022-08-22T21:36:31.778Z,9.20
2022-08-22T21:39:03.874Z,12.13
2022-08-22T21:41:38.266Z,11.57
2022-08-22T21:44:30.703Z,9.43
2022-08-22T21:47:14.877Z,10.77
2022-08-22T21:50:05.081Z,13.43
2022-08-22T21:52:36.266Z,6.85
2022-08-22T21:55:30.057Z,9.32
2022-08-22T22:01:35.626Z,7.20
2022-08-22T22:04:11.546Z,7.50
2022-08-22T22:06:38.421Z,8.75
2022-08-22T22:09:09.142Z,8.32
2022-08-22T22:11:39.989Z,10.40
2022-08-22T22:14:10.246Z,9.15
2022-08-22T22:16:38.394Z,9.05
2022-08-22T22:19:07.908Z,10.90
2022-08-22T22:21:38.660Z,10.00
2022-08-22T22:24:05.594Z,7.30
2022-08-22T22:26:32.635Z,10.50
2022-08-22T22:28:59.499Z,10.38
2022-08-22T22:31:26.504Z,8.60
2022-08-22T22:33:53.350Z,6.38
2022-08-22T22:36:26.735Z,9.38
2022-08-22T22:38:54.068Z,9.13
2022-08-22T22:41:38.998Z,11.18
2022-08-22T22:44:05.722Z,7.93
2022-08-22T22:46:32.701Z,11.05
2022-08-22T22:48:59.475Z,8.80
2022-08-22T22:51:26.201Z,8.63
2022-08-22T22:53:52.919Z,10.55
2022-08-22T22:56:23.822Z,8.95
2022-08-22T22:59:13.110Z,6.93
2022-08-22T23:02:00.742Z,7.00
2022-08-22T23:04:28.198Z,10.88
2022-08-22T23:06:54.961Z,12.70
2022-08-22T23:09:21.906Z,10.10
2022-08-22T23:11:54.943Z,11.65
2022-08-22T23:14:23.008Z,11.00
2022-08-22T23:16:49.814Z,8.32
2022-08-22T23:19:17.535Z,9.52
2022-08-22T23:21:48.986Z,11.90
2022-08-22T23:24:18.959Z,11.35
2022-08-22T23:26:45.832Z,8.73
2022-08-22T23:29:12.595Z,8.00
2022-08-22T23:32:00.811Z,10.02
2022-08-22T23:34:37.270Z,8.43
2022-08-22T23:37:08.207Z,7.78
2022-08-22T23:39:38.179Z,8.25
2022-08-22T23:42:06.982Z,9.27
2022-08-22T23:44:35.988Z,9.85
2022-08-22T23:47:07.260Z,9.20
2022-08-22T23:49:34.248Z,10.32
2022-08-22T23:52:01.812Z,7.70
2022-08-22T23:54:28.819Z,10.88
2022-08-22T23:56:58.669Z,9.07
2022-08-22T23:59:33.534Z,11.00
